Time;durP1;ratioP1;P1;durP2;ratioP2;P2;SDS_P1;SDS_P2;PMS_P1;PMS_P2;Temp;Humidity;BMP_temperature;BMP_pressure;BME280_temperature;BME280_humidity;BME280_pressure;Samples;Min_cycle;Max_cycle;Signal;HPM_P1;HPM_P2
2022/05/05 00:00:00;;;;;;;;;24.75;24.25;;;;;15.97;60.71;101520.72;5013002;28;45495;-84
2022/05/05 00:02:25;;;;;;;;;23.50;21.25;;;;;15.85;60.90;101502.69;5012784;28;46263;-87
2022/05/05 00:04:50;;;;;;;;;27.25;25.25;;;;;15.81;61.53;101498.53;5013653;28;54372;-87
2022/05/05 00:07:16;;;;;;;;;22.75;21.25;;;;;15.68;61.46;101488.56;5015703;28;45396;-86
2022/05/05 00:09:42;;;;;;;;;22.75;21.75;;;;;15.89;61.13;101531.09;5016535;28;45405;-85
2022/05/05 00:14:51;;;;;;;;;28.50;25.75;;;;;15.72;60.48;101508.03;5010904;28;45452;-86
2022/05/05 00:17:16;;;;;;;;;22.25;22.25;;;;;15.81;60.37;101528.06;5015219;28;45537;-87
2022/05/05 00:19:42;;;;;;;;;22.25;22.00;;;;;15.81;60.70;101530.72;4997872;28;45982;-86
2022/05/05 00:22:09;;;;;;;;;21.75;20.75;;;;;15.83;60.52;101534.19;5015426;28;45509;-87
2022/05/05 00:24:36;;;;;;;;;17.25;15.00;;;;;15.82;61.57;101532.44;5015898;28;45483;-84
2022/05/05 00:27:03;;;;;;;;;20.00;18.50;;;;;15.83;60.72;101531.50;5014199;28;45737;-85
2022/05/05 00:29:28;;;;;;;;;19.00;17.50;;;;;15.61;60.86;101499.78;5014129;28;45588;-86
2022/05/05 00:31:53;;;;;;;;;19.25;17.50;;;;;15.61;60.45;101494.41;5015133;28;46102;-86
2022/05/05 00:34:19;;;;;;;;;19.00;19.00;;;;;15.81;60.49;101528.91;5013545;28;45502;-86
2022/05/05 00:36:44;;;;;;;;;18.00;17.75;;;;;15.80;60.22;101529.00;5003775;28;45547;-87
2022/05/05 00:39:11;;;;;;;;;23.25;22.75;;;;;15.75;60.75;101524.81;5012402;28;45423;-86
2022/05/05 00:41:41;;;;;;;;;20.25;17.75;;;;;15.73;61.29;101528.56;5014611;28;47477;-86
2022/05/05 00:44:07;;;;;;;;;20.25;19.00;;;;;15.72;60.84;101527.66;5014640;28;46804;-86
2022/05/05 00:46:33;;;;;;;;;23.00;22.75;;;;;15.69;61.08;101525.16;5015483;28;45606;-86
2022/05/05 00:48:59;;;;;;;;;20.75;18.50;;;;;15.60;61.99;101512.34;5014033;28;45803;-85
2022/05/05 00:51:24;;;;;;;;;19.00;19.00;;;;;15.63;61.74;101519.31;5012351;28;45534;-85
2022/05/05 00:53:50;;;;;;;;;22.75;18.25;;;;;15.58;61.56;101516.09;4999387;28;48848;-85
2022/05/05 00:56:16;;;;;;;;;19.50;16.50;;;;;15.56;61.94;101516.16;4997111;28;45738;-85
2022/05/05 00:58:46;;;;;;;;;20.00;18.00;;;;;15.60;62.06;101530.25;4999714;28;45559;-85
2022/05/05 01:01:17;;;;;;;;;19.75;19.00;;;;;15.43;62.15;101502.69;5015989;28;45937;-86
2022/05/05 01:03:43;;;;;;;;;16.00;15.00;;;;;15.49;61.18;101510.34;5001827;28;45642;-85
2022/05/05 01:06:08;;;;;;;;;16.25;15.00;;;;;15.58;60.85;101529.50;5002143;28;50444;-85
2022/05/05 01:08:34;;;;;;;;;16.50;15.00;;;;;15.53;61.50;101533.34;5015881;28;45664;-85
2022/05/05 01:10:59;;;;;;;;;15.00;15.00;;;;;15.51;60.34;101529.91;4998544;28;46947;-85
2022/05/05 01:13:27;;;;;;;;;17.25;15.25;;;;;15.57;60.78;101535.84;5016536;28;45525;-87
2022/05/05 01:15:53;;;;;;;;;13.75;13.75;;;;;15.53;59.07;101538.69;5015688;28;45506;-86
2022/05/05 01:18:18;;;;;;;;;15.75;14.75;;;;;15.57;59.15;101536.69;5015103;28;45392;-86
2022/05/05 01:20:47;;;;;;;;;14.25;14.25;;;;;15.60;59.16;101532.94;5014840;28;46066;-86
2022/05/05 01:23:13;;;;;;;;;16.00;14.75;;;;;15.57;58.76;101531.31;5015960;28;45544;-86
2022/05/05 01:28:24;;;;;;;;;14.75;14.75;;;;;15.46;58.82;101523.94;5014121;28;45912;-86
2022/05/05 01:30:49;;;;;;;;;15.50;15.50;;;;;15.39;59.60;101511.03;5012790;28;45498;-86
2022/05/05 01:33:20;;;;;;;;;17.00;15.50;;;;;15.54;58.95;101532.38;5015507;28;45584;-87
2022/05/05 01:35:49;;;;;;;;;14.00;14.00;;;;;15.31;58.86;101508.84;5015525;28;45538;-86
2022/05/05 01:38:22;;;;;;;;;18.25;17.25;;;;;15.35;59.62;101507.69;5014636;28;45412;-86
2022/05/05 01:40:47;;;;;;;;;14.25;13.75;;;;;15.48;58.51;101526.56;4998272;28;47024;-86
2022/05/05 01:43:15;;;;;;;;;13.25;13.25;;;;;15.44;58.84;101527.69;4997377;28;45706;-87
2022/05/05 01:45:41;;;;;;;;;16.25;13.75;;;;;15.39;58.76;101524.44;5015064;28;45484;-85
2022/05/05 01:48:07;;;;;;;;;14.00;14.00;;;;;15.37;58.62;101524.56;5015242;28;45441;-86
2022/05/05 01:50:32;;;;;;;;;14.50;11.25;;;;;15.42;58.48;101530.50;5013590;28;46026;-87
2022/05/05 01:52:59;;;;;;;;;10.50;10.50;;;;;15.34;58.65;101522.06;5015655;28;45281;-86
2022/05/05 01:55:24;;;;;;;;;11.50;9.75;;;;;15.34;58.52;101533.66;5015771;28;45409;-86
2022/05/05 01:57:50;;;;;;;;;11.50;11.00;;;;;15.23;58.97;101513.84;5012814;28;45544;-85
2022/05/05 02:00:17;;;;;;;;;9.50;9.50;;;;;15.19;58.96;101509.63;5014916;28;45976;-86
2022/05/05 02:02:43;;;;;;;;;13.75;12.00;;;;;15.35;58.52;101537.22;5015064;28;45529;-86
2022/05/05 02:05:10;;;;;;;;;9.00;9.00;;;;;15.35;58.97;101539.91;5015495;28;45633;-86
2022/05/05 02:07:35;;;;;;;;;12.50;11.75;;;;;15.16;58.36;101510.69;5016590;28;45379;-86
2022/05/05 02:10:02;;;;;;;;;9.75;9.75;;;;;15.26;58.71;101540.47;5015551;28;48194;-86
2022/05/05 02:12:30;;;;;;;;;10.00;10.00;;;;;15.02;59.43;101513.38;5015177;28;45570;-84
2022/05/05 02:14:55;;;;;;;;;10.75;10.75;;;;;15.06;59.81;101515.75;5015195;28;45393;-87
2022/05/05 02:17:20;;;;;;;;;10.75;10.25;;;;;15.16;59.21;101536.66;5014999;28;45460;-87
2022/05/05 02:19:47;;;;;;;;;8.75;8.75;;;;;14.99;59.57;101525.16;5015646;28;47430;-84
2022/05/05 02:22:12;;;;;;;;;10.25;10.25;;;;;14.92;59.27;101513.09;5014487;28;45538;-85
2022/05/05 02:24:38;;;;;;;;;13.50;10.50;;;;;14.95;59.39;101504.84;5014707;28;45408;-85
2022/05/05 02:27:04;;;;;;;;;11.50;9.00;;;;;15.13;59.42;101535.88;5014547;28;45447;-85
2022/05/05 02:29:30;;;;;;;;;12.25;12.25;;;;;15.06;59.37;101531.00;4997195;28;47994;-84
2022/05/05 02:31:55;;;;;;;;;12.50;12.50;;;;;15.09;59.32;101531.66;5015195;28;45460;-85
2022/05/05 02:34:21;;;;;;;;;12.75;11.25;;;;;15.08;59.35;101540.66;5015184;28;45671;-84
2022/05/05 02:39:30;;;;;;;;;12.25;11.00;;;;;15.05;59.30;101531.94;5009301;28;45837;-86
2022/05/05 02:41:56;;;;;;;;;14.50;14.00;;;;;15.00;58.86;101526.00;5014439;28;45411;-85
2022/05/05 02:44:21;;;;;;;;;13.00;13.00;;;;;14.99;59.14;101548.44;5014460;28;45472;-84
2022/05/05 02:46:46;;;;;;;;;12.25;12.25;;;;;14.90;59.90;101528.41;5015564;28;45333;-85
2022/05/05 02:49:13;;;;;;;;;14.00;13.00;;;;;14.96;59.48;101530.72;5014234;28;46575;-85
2022/05/05 02:51:38;;;;;;;;;15.25;13.75;;;;;14.95;60.02;101531.66;5009003;28;45294;-85
2022/05/05 02:56:48;;;;;;;;;14.00;14.00;;;;;14.80;59.72;101517.38;5009905;28;45219;-85
2022/05/05 02:59:13;;;;;;;;;18.50;14.25;;;;;14.86;60.27;101530.41;4996011;28;47063;-84
2022/05/05 03:01:39;;;;;;;;;13.00;12.00;;;;;14.86;60.06;101530.41;5014742;28;52547;-86
2022/05/05 03:04:04;;;;;;;;;14.00;14.00;;;;;14.82;59.80;101523.50;4999474;28;45356;-85
2022/05/05 03:06:30;;;;;;;;;18.00;16.00;;;;;14.65;60.15;101499.56;5013873;28;45474;-85
2022/05/05 03:08:55;;;;;;;;;17.75;16.50;;;;;14.85;60.38;101538.53;5013991;28;46278;-85
2022/05/05 03:11:20;;;;;;;;;13.50;13.00;;;;;14.69;60.91;101511.81;5014077;28;45407;-85
2022/05/05 03:13:45;;;;;;;;;17.50;16.75;;;;;14.82;60.78;101536.06;5014968;28;45378;-85
2022/05/05 03:16:11;;;;;;;;;17.00;17.00;;;;;14.78;60.84;101527.31;5013739;28;47146;-85
2022/05/05 03:18:40;;;;;;;;;14.00;13.50;;;;;14.86;60.79;101526.84;5013635;28;45273;-84
2022/05/05 03:21:06;;;;;;;;;14.25;13.75;;;;;14.86;60.84;101533.09;5013386;28;45420;-86
2022/05/05 03:23:32;;;;;;;;;16.75;14.50;;;;;14.81;61.14;101531.63;5013947;28;45482;-85
2022/05/05 03:25:58;;;;;;;;;19.75;17.25;;;;;14.77;61.29;101530.09;5013351;28;55293;-86
2022/05/05 03:28:23;;;;;;;;;12.50;12.50;;;;;14.80;61.35;101533.47;5014250;28;45410;-86
2022/05/05 03:30:49;;;;;;;;;14.25;14.00;;;;;14.73;61.16;101524.06;5000064;28;46020;-85
2022/05/05 03:33:14;;;;;;;;;12.75;12.75;;;;;14.78;61.37;101537.19;5014048;28;45361;-86
2022/05/05 03:35:40;;;;;;;;;16.00;15.75;;;;;14.65;61.34;101515.66;5014157;28;45448;-86
2022/05/05 03:38:05;;;;;;;;;15.25;14.50;;;;;14.69;61.65;101525.19;5014174;28;46568;-86
2022/05/05 03:40:31;;;;;;;;;16.75;15.50;;;;;14.59;61.34;101516.84;5014769;28;45500;-85
2022/05/05 03:42:56;;;;;;;;;15.25;14.50;;;;;14.56;61.57;101506.34;5014468;28;46745;-86
2022/05/05 03:45:21;;;;;;;;;16.25;14.75;;;;;14.55;61.77;101522.50;5014577;28;45432;-85
2022/05/05 03:47:46;;;;;;;;;16.00;14.00;;;;;14.57;61.86;101536.66;5014592;28;45988;-85
2022/05/05 03:50:12;;;;;;;;;16.50;15.00;;;;;14.45;62.11;101519.47;4996984;28;45372;-86
2022/05/05 03:52:37;;;;;;;;;15.75;14.75;;;;;14.33;62.13;101507.66;5015283;28;45318;-85
2022/05/05 03:55:03;;;;;;;;;17.75;16.25;;;;;14.37;62.29;101527.97;5014386;28;45530;-85
2022/05/05 03:57:28;;;;;;;;;15.75;15.75;;;;;14.49;62.12;101556.72;5014376;28;45375;-84
2022/05/05 03:59:54;;;;;;;;;19.25;18.00;;;;;14.39;62.58;101534.09;5013938;28;54261;-85
2022/05/05 04:02:19;;;;;;;;;15.00;13.50;;;;;14.49;62.38;101550.50;5014603;28;45446;-85
2022/05/05 04:04:44;;;;;;;;;16.75;14.25;;;;;14.19;62.38;101494.25;5014981;28;45475;-85
2022/05/05 04:07:09;;;;;;;;;14.75;13.25;;;;;14.35;62.64;101527.19;5014130;28;46003;-85
2022/05/05 04:09:35;;;;;;;;;18.50;17.25;;;;;14.29;62.96;101511.50;5014175;28;50747;-85
2022/05/05 04:12:00;;;;;;;;;14.00;14.00;;;;;14.35;63.13;101524.53;5014534;28;45378;-85
2022/05/05 04:14:26;;;;;;;;;17.25;15.75;;;;;14.43;63.25;101545.47;4996579;28;46504;-85
2022/05/05 04:16:51;;;;;;;;;17.75;15.25;;;;;14.43;63.34;101540.13;4997076;28;46001;-85
2022/05/05 04:19:16;;;;;;;;;14.00;14.00;;;;;14.41;63.06;101542.06;5013950;28;45424;-85
2022/05/05 04:21:42;;;;;;;;;20.50;17.25;;;;;14.27;63.01;101519.63;5014174;28;45289;-85
2022/05/05 04:24:07;;;;;;;;;15.75;15.75;;;;;14.25;63.23;101528.69;5014326;28;45424;-84
2022/05/05 04:26:33;;;;;;;;;12.75;12.75;;;;;14.30;63.68;101547.19;5013990;28;45689;-85
2022/05/05 04:28:58;;;;;;;;;18.75;15.50;;;;;14.26;63.37;101539.34;5014402;28;45389;-84
2022/05/05 04:31:31;;;;;;;;;14.75;14.50;;;;;14.27;63.64;101534.84;5013653;28;45579;-85
2022/05/05 04:33:57;;;;;;;;;18.00;16.00;;;;;14.41;63.30;101542.91;5014076;28;45547;-85
2022/05/05 04:36:22;;;;;;;;;15.50;15.50;;;;;14.42;63.47;101565.22;5013190;28;45418;-84
2022/05/05 04:38:48;;;;;;;;;12.00;10.00;;;;;14.37;63.23;101556.59;5013109;28;45543;-85
2022/05/05 04:41:13;;;;;;;;;17.75;16.25;;;;;14.28;63.34;101549.94;5013286;28;45650;-84
2022/05/05 04:43:38;;;;;;;;;17.00;17.00;;;;;14.21;63.66;101537.88;5013769;28;45485;-85
2022/05/05 04:46:04;;;;;;;;;17.25;16.50;;;;;14.11;63.72;101529.50;5011299;28;49689;-83
2022/05/05 04:48:31;;;;;;;;;21.50;19.00;;;;;14.32;63.73;101572.91;5012714;28;45562;-84
2022/05/05 04:50:56;;;;;;;;;18.00;15.75;;;;;14.36;63.74;101570.91;5013131;28;45405;-83
2022/05/05 04:53:21;;;;;;;;;18.00;17.25;;;;;14.28;63.77;101564.19;5015950;28;45464;-84
2022/05/05 04:55:47;;;;;;;;;18.25;18.25;;;;;14.23;64.06;101558.25;5016660;28;46170;-84
2022/05/05 04:58:12;;;;;;;;;23.00;20.00;;;;;14.20;64.46;101566.47;5015958;28;47957;-83
2022/05/05 05:00:39;;;;;;;;;18.50;18.00;;;;;14.17;64.22;101566.66;5015945;28;48594;-84
2022/05/05 05:03:04;;;;;;;;;19.00;18.25;;;;;14.05;64.42;101551.28;5016193;28;45514;-84
2022/05/05 05:05:29;;;;;;;;;24.50;23.25;;;;;14.21;64.81;101586.91;5016211;28;45461;-83
2022/05/05 05:07:55;;;;;;;;;24.75;21.00;;;;;14.20;64.61;101592.38;5016347;28;46928;-83
2022/05/05 05:10:20;;;;;;;;;23.00;21.00;;;;;14.18;64.70;101573.72;5014602;28;45391;-84
2022/05/05 05:12:45;;;;;;;;;24.00;24.00;;;;;14.27;64.76;101591.06;5016111;28;45404;-84
2022/05/05 05:15:11;;;;;;;;;26.00;23.75;;;;;14.27;64.97;101585.72;5015662;28;45951;-85
2022/05/05 05:17:36;;;;;;;;;28.00;24.25;;;;;14.19;65.07;101591.53;5015788;28;47625;-83
2022/05/05 05:20:03;;;;;;;;;27.00;24.25;;;;;14.05;65.36;101564.69;5016180;28;45401;-83
2022/05/05 05:22:29;;;;;;;;;20.75;19.50;;;;;14.05;65.33;101568.22;5016180;28;45619;-83
2022/05/05 05:24:54;;;;;;;;;27.25;25.75;;;;;14.14;65.18;101580.22;5015589;28;45285;-83
2022/05/05 05:27:19;;;;;;;;;25.25;21.75;;;;;14.22;65.29;101598.53;5015429;28;49163;-83
2022/05/05 05:29:45;;;;;;;;;23.00;21.00;;;;;14.01;65.35;101569.34;5014671;28;45534;-83
2022/05/05 05:32:10;;;;;;;;;29.50;24.00;;;;;14.20;65.01;101595.91;5016378;28;45683;-83
2022/05/05 05:34:35;;;;;;;;;23.25;21.75;;;;;14.17;65.21;101596.09;5016649;28;45467;-83
2022/05/05 05:37:03;;;;;;;;;23.50;22.00;;;;;14.16;65.25;101594.34;5016250;28;45503;-83
2022/05/05 05:39:28;;;;;;;;;27.50;25.25;;;;;14.26;65.46;101613.44;5016435;28;45487;-83
2022/05/05 05:41:54;;;;;;;;;28.25;23.75;;;;;14.27;65.29;101612.50;5016618;28;45495;-83
2022/05/05 05:44:19;;;;;;;;;28.75;26.75;;;;;14.15;65.35;101586.44;5016428;28;45465;-83
2022/05/05 05:46:44;;;;;;;;;21.50;21.25;;;;;14.28;65.95;101619.56;5017019;28;45472;-83
2022/05/05 05:49:10;;;;;;;;;24.50;22.00;;;;;14.16;65.87;101599.72;5016316;28;45361;-83
2022/05/05 05:51:36;;;;;;;;;28.50;27.75;;;;;14.25;65.73;101609.03;4998573;28;45372;-83
2022/05/05 05:54:01;;;;;;;;;26.50;26.50;;;;;14.30;65.68;101620.34;5016091;28;46470;-83
2022/05/05 05:56:27;;;;;;;;;23.00;22.25;;;;;14.32;65.85;101614.91;5016288;28;45414;-83
2022/05/05 05:58:52;;;;;;;;;26.50;25.00;;;;;14.35;65.90;101615.59;5016918;28;45516;-83
2022/05/05 06:01:17;;;;;;;;;28.50;25.75;;;;;14.31;65.64;101613.19;4997846;28;50362;-83
2022/05/05 06:03:56;;;;;;;;;26.75;25.50;;;;;14.28;65.81;101611.53;5015383;28;45996;-83
2022/05/05 06:06:22;;;;;;;;;31.50;25.00;;;;;14.29;65.81;101610.59;5005483;28;45479;-83
2022/05/05 06:08:48;;;;;;;;;35.50;31.75;;;;;14.25;66.02;101609.03;5015916;28;45556;-83
2022/05/05 06:11:14;;;;;;;;;45.50;37.25;;;;;14.33;66.11;101613.97;5015298;28;48100;-84
2022/05/05 06:13:39;;;;;;;;;42.50;33.25;;;;;14.36;66.14;101625.38;5015379;28;45516;-83
2022/05/05 06:16:06;;;;;;;;;35.50;30.25;;;;;14.19;66.24;101583.50;5009830;28;45528;-83
2022/05/05 06:18:32;;;;;;;;;31.00;26.75;;;;;14.41;66.38;101625.97;4996799;28;45600;-84
2022/05/05 06:20:58;;;;;;;;;28.25;27.50;;;;;14.01;66.11;101560.44;5004831;28;45357;-84
2022/05/05 06:23:24;;;;;;;;;32.75;29.50;;;;;14.30;66.25;101603.44;5015792;28;46202;-84
2022/05/05 06:25:49;;;;;;;;;31.75;28.25;;;;;14.35;65.93;101615.59;5014494;28;45338;-84
2022/05/05 06:28:14;;;;;;;;;34.00;29.25;;;;;14.45;66.45;101623.94;5014019;28;47832;-84
2022/05/05 06:30:39;;;;;;;;;35.00;30.75;;;;;14.42;66.45;101621.47;4993017;28;45582;-84
2022/05/05 06:33:05;;;;;;;;;31.00;29.50;;;;;14.46;66.38;101634.59;5014944;28;46669;-83
2022/05/05 06:35:30;;;;;;;;;32.75;29.00;;;;;14.47;66.29;101638.97;5010462;28;45467;-84
2022/05/05 06:37:56;;;;;;;;;28.50;25.75;;;;;14.22;66.15;101595.84;5004006;28;45771;-83
2022/05/05 06:40:21;;;;;;;;;27.50;26.00;;;;;14.54;66.34;101638.69;5015407;28;45369;-83
2022/05/05 06:42:48;;;;;;;;;28.75;28.00;;;;;14.47;66.23;101641.66;5015041;28;45222;-83
2022/05/05 06:45:14;;;;;;;;;32.75;27.50;;;;;14.23;66.37;101602.91;5014861;28;45428;-85
2022/05/05 06:47:40;;;;;;;;;30.50;29.50;;;;;14.37;66.08;101621.72;5012773;28;45503;-83
2022/05/05 06:50:06;;;;;;;;;24.75;23.75;;;;;14.31;66.57;101626.56;5004927;28;45502;-83
2022/05/05 06:52:31;;;;;;;;;26.00;25.00;;;;;14.41;66.29;101625.09;5015320;28;46675;-83
2022/05/05 06:54:56;;;;;;;;;30.50;30.25;;;;;14.51;66.48;101646.88;4988419;28;45633;-84
2022/05/05 06:57:23;;;;;;;;;29.50;28.50;;;;;14.58;66.35;101656.31;5007727;28;45363;-84
2022/05/05 06:59:48;;;;;;;;;30.00;27.50;;;;;14.51;66.53;101636.16;4996118;28;45471;-85
2022/05/05 07:02:13;;;;;;;;;27.00;26.00;;;;;14.48;66.32;101631.84;5009578;28;45385;-85
2022/05/05 07:07:26;;;;;;;;;29.75;26.00;;;;;14.65;66.01;101658.53;5014729;28;45349;-86
2022/05/05 07:12:36;;;;;;;;;32.00;28.75;;;;;14.79;66.13;101673.81;5014576;28;45782;-84
2022/05/05 07:15:02;;;;;;;;;34.75;31.25;;;;;14.70;65.84;101659.13;5014061;28;45468;-84
2022/05/05 07:17:27;;;;;;;;;34.75;33.00;;;;;14.67;65.99;101653.97;5013569;28;45495;-83
2022/05/05 07:19:54;;;;;;;;;37.75;32.25;;;;;14.75;65.81;101672.25;4996945;28;45314;-87
2022/05/05 07:22:19;;;;;;;;;40.00;34.00;;;;;14.74;66.12;101667.84;5014256;28;46489;-85
2022/05/05 07:24:46;;;;;;;;;34.00;31.75;;;;;14.60;65.97;101655.28;5010268;28;45523;-86
2022/05/05 07:27:12;;;;;;;;;35.50;31.50;;;;;14.69;66.11;101676.16;5014104;28;45560;-85
2022/05/05 07:29:37;;;;;;;;;33.00;31.00;;;;;14.70;66.39;101677.88;5009585;28;45535;-85
2022/05/05 07:32:04;;;;;;;;;33.25;29.00;;;;;14.50;66.45;101645.97;5012566;28;45672;-85
2022/05/05 07:34:29;;;;;;;;;34.50;30.00;;;;;14.65;66.13;101668.41;5014814;28;45467;-84
2022/05/05 07:36:55;;;;;;;;;28.50;26.50;;;;;14.80;66.04;101680.88;4996546;28;45516;-85
2022/05/05 07:39:20;;;;;;;;;30.75;29.25;;;;;14.74;66.00;101686.59;5011010;28;45409;-85
2022/05/05 07:41:46;;;;;;;;;34.00;31.75;;;;;14.64;66.19;101663.97;5014668;28;45466;-85
2022/05/05 07:44:11;;;;;;;;;32.75;30.00;;;;;14.55;66.13;101652.00;5014190;28;45524;-85
2022/05/05 07:46:37;;;;;;;;;34.25;29.75;;;;;14.60;66.54;101674.03;5011150;28;45294;-84
2022/05/05 07:49:04;;;;;;;;;33.25;30.50;;;;;14.74;66.29;101691.09;5007898;28;45278;-85
2022/05/05 07:51:31;;;;;;;;;34.75;30.25;;;;;14.72;66.05;101699.25;5007188;28;45464;-87
2022/05/05 07:56:42;;;;;;;;;27.00;27.00;;;;;14.68;66.13;101682.47;5014543;28;45397;-85
2022/05/05 07:59:07;;;;;;;;;28.50;27.25;;;;;14.78;66.17;101698.03;5014691;28;45463;-86
2022/05/05 08:01:33;;;;;;;;;28.25;26.50;;;;;14.67;66.27;101671.81;5012905;28;45916;-83
2022/05/05 08:03:58;;;;;;;;;23.75;22.50;;;;;14.78;65.97;101701.56;5011720;28;45425;-86
2022/05/05 08:06:24;;;;;;;;;29.00;28.50;;;;;14.82;65.78;101695.06;5011996;28;45330;-85
2022/05/05 08:08:49;;;;;;;;;26.25;26.25;;;;;14.61;65.68;101664.16;5004653;28;45322;-86
2022/05/05 08:11:14;;;;;;;;;25.50;24.00;;;;;14.77;65.93;101683.75;4996841;28;48152;-86
2022/05/05 08:13:40;;;;;;;;;38.00;29.75;;;;;14.92;66.11;101690.03;5014498;28;45833;-85
2022/05/05 08:16:06;;;;;;;;;31.25;26.00;;;;;14.96;65.07;101682.66;5014729;28;45423;-84
2022/05/05 08:18:31;;;;;;;;;22.75;20.75;;;;;14.97;64.60;101682.56;4985146;28;45578;-86
2022/05/05 08:20:57;;;;;;;;;25.50;22.75;;;;;15.09;64.92;101710.47;5012499;28;46158;-86
2022/05/05 08:23:23;;;;;;;;;27.00;25.75;;;;;15.12;64.13;101715.66;5014359;28;45412;-86
2022/05/05 08:28:36;;;;;;;;;24.75;21.75;;;;;15.09;63.94;101716.69;5017988;28;45308;-88
2022/05/05 08:31:02;;;;;;;;;28.50;27.50;;;;;15.11;63.86;101717.47;4999570;28;47076;-85
2022/05/05 08:33:28;;;;;;;;;31.00;27.50;;;;;15.12;64.16;101718.34;5017402;28;45635;-85
2022/05/05 08:35:57;;;;;;;;;26.75;25.75;;;;;14.89;64.49;101679.50;5017772;28;45443;-85
2022/05/05 08:38:24;;;;;;;;;25.00;25.00;;;;;14.96;64.33;101690.69;5002044;28;45449;-85
2022/05/05 08:40:50;;;;;;;;;27.25;25.50;;;;;15.24;63.93;101716.75;5013950;28;46061;-85
2022/05/05 08:43:15;;;;;;;;;24.00;23.25;;;;;15.14;64.24;101697.66;5017226;28;45488;-84
2022/05/05 08:45:42;;;;;;;;;27.50;23.50;;;;;15.23;63.83;101707.84;4999475;28;45539;-85
2022/05/05 08:48:11;;;;;;;;;24.25;24.00;;;;;15.33;63.96;101722.41;5017420;28;45456;-85
2022/05/05 08:50:38;;;;;;;;;20.50;20.00;;;;;15.41;63.77;101721.94;5017263;28;45993;-85
2022/05/05 08:53:04;;;;;;;;;26.75;24.00;;;;;15.48;63.58;101723.31;5017379;28;45420;-84
2022/05/05 08:55:31;;;;;;;;;25.25;22.75;;;;;15.57;63.27;101721.88;5017787;28;45372;-85
2022/05/05 08:57:57;;;;;;;;;21.25;21.00;;;;;15.49;62.86;101703.56;5017257;28;45596;-85
2022/05/05 09:00:24;;;;;;;;;25.00;24.25;;;;;15.75;62.44;101734.22;5016845;28;45486;-84
2022/05/05 09:03:00;;;;;;;;;22.50;21.50;;;;;15.74;62.53;101721.72;4999191;28;45495;-84
2022/05/05 09:05:43;;;;;;;;;24.50;21.50;;;;;15.91;62.32;101736.78;5001859;28;45566;-84
2022/05/05 09:08:33;;;;;;;;;24.00;24.00;;;;;15.96;62.62;101736.50;4999259;28;45517;-85
2022/05/05 09:11:03;;;;;;;;;27.50;24.50;;;;;15.97;61.44;101719.44;5002676;28;47045;-84
2022/05/05 09:13:34;;;;;;;;;24.25;24.25;;;;;15.95;61.48;101718.69;5016515;28;45413;-84
2022/05/05 09:16:03;;;;;;;;;23.00;22.50;;;;;16.00;61.34;101710.31;4999002;28;45510;-84
2022/05/05 09:18:31;;;;;;;;;20.75;20.75;;;;;16.24;61.11;101734.78;4998407;28;45428;-84
2022/05/05 09:21:01;;;;;;;;;19.50;16.25;;;;;16.30;61.01;101737.03;5015589;28;46296;-84
2022/05/05 09:23:31;;;;;;;;;23.50;23.00;;;;;16.34;60.49;101730.53;5016628;28;45388;-84
2022/05/05 09:25:57;;;;;;;;;23.50;22.50;;;;;16.34;60.65;101736.75;5016074;28;45330;-85
2022/05/05 09:28:24;;;;;;;;;22.00;19.75;;;;;16.34;60.47;101728.69;5016333;28;45231;-85
2022/05/05 09:30:52;;;;;;;;;18.75;18.75;;;;;16.29;59.96;101701.25;5015617;28;45545;-85
2022/05/05 09:33:38;;;;;;;;;25.00;23.00;;;;;16.36;59.75;101701.72;5016015;28;45400;-83
2022/05/05 09:36:05;;;;;;;;;18.00;18.00;;;;;16.50;59.32;101728.56;5016728;28;45476;-86
2022/05/05 09:38:59;;;;;;;;;22.00;20.00;;;;;16.51;59.51;101729.41;5016249;28;45300;-84
2022/05/05 09:41:29;;;;;;;;;21.25;20.25;;;;;16.60;59.63;101731.50;4983459;28;48463;-85
2022/05/05 09:43:56;;;;;;;;;18.50;18.50;;;;;16.61;59.38;101722.47;4998445;28;46990;-84
2022/05/05 09:46:22;;;;;;;;;15.75;15.75;;;;;16.88;59.16;101727.88;5015416;28;45498;-84
2022/05/05 09:48:47;;;;;;;;;20.25;17.25;;;;;16.99;58.70;101727.16;4997548;28;45463;-83
2022/05/05 09:51:15;;;;;;;;;14.25;12.75;;;;;17.14;58.48;101691.13;5015319;28;46470;-85
2022/05/05 09:59:17;;;;;;;;;14.25;12.75;;;;;17.43;56.14;101691.81;5014445;28;45539;-84
2022/05/05 10:01:45;;;;;;;;;18.50;14.25;;;;;17.51;55.15;101711.94;5015960;28;45572;-82
2022/05/05 10:04:11;;;;;;;;;17.50;16.00;;;;;17.39;55.82;101697.50;5014157;28;45731;-85
2022/05/05 10:06:41;;;;;;;;;14.25;12.25;;;;;17.48;54.90;101714.88;5015347;28;45397;-84
2022/05/05 10:09:07;;;;;;;;;13.50;12.00;;;;;17.45;54.99;101705.16;4997543;28;45687;-84
2022/05/05 10:11:34;;;;;;;;;2.25;2.00;;;;;17.35;55.08;101713.03;5012915;28;45506;-83
2022/05/05 10:14:01;;;;;;;;;12.00;10.25;;;;;17.52;54.68;101713.69;5015633;28;45450;-85
2022/05/05 10:16:27;;;;;;;;;7.50;7.00;;;;;17.65;54.01;101714.53;5014830;28;45543;-84
2022/05/05 10:18:53;;;;;;;;;10.25;9.25;;;;;17.72;52.07;101721.22;5012603;28;45449;-83
2022/05/05 10:21:28;;;;;;;;;8.00;6.75;;;;;17.61;52.87;101713.91;5014801;28;45464;-85
2022/05/05 10:24:03;;;;;;;;;10.50;9.25;;;;;17.64;53.00;101721.75;5007006;28;45452;-86
2022/05/05 10:26:29;;;;;;;;;6.25;6.25;;;;;17.47;52.42;101700.53;5000820;28;45548;-82
2022/05/05 10:28:54;;;;;;;;;6.00;6.00;;;;;17.55;52.09;101700.00;5016364;28;45556;-85
2022/05/05 10:31:31;;;;;;;;;10.00;8.50;;;;;17.66;51.16;101716.28;5014363;28;47003;-86
2022/05/05 10:34:01;;;;;;;;;6.75;6.50;;;;;17.67;51.12;101717.97;5015544;28;45428;-83
2022/05/05 10:36:29;;;;;;;;;7.25;6.25;;;;;17.66;51.40;101708.19;5012568;28;45286;-84
2022/05/05 10:38:56;;;;;;;;;7.25;6.75;;;;;17.62;51.69;101704.00;5004399;28;45422;-83
2022/05/05 10:41:31;;;;;;;;;7.25;7.25;;;;;17.59;51.29;101714.97;5007963;28;46218;-85
2022/05/05 10:44:19;;;;;;;;;11.00;8.25;;;;;17.52;50.94;101716.38;5010951;28;45377;-83
2022/05/05 10:47:03;;;;;;;;;9.00;7.75;;;;;17.51;51.58;101720.91;5012072;28;45413;-84
2022/05/05 10:49:36;;;;;;;;;7.25;6.50;;;;;17.50;51.10;101715.63;5013552;28;45600;-85
2022/05/05 10:52:10;;;;;;;;;6.25;6.25;;;;;17.41;50.49;101723.38;4996719;28;48351;-84
2022/05/05 10:54:45;;;;;;;;;4.25;4.25;;;;;17.34;50.29;101714.00;5015070;28;45502;-85
2022/05/05 10:57:25;;;;;;;;;7.75;7.75;;;;;17.29;50.58;101720.66;5015317;28;45460;-86
2022/05/05 11:00:22;;;;;;;;;7.50;7.50;;;;;17.24;51.17;101720.97;4997357;28;45297;-84
2022/05/05 11:02:56;;;;;;;;;9.75;9.75;;;;;17.19;51.26;101717.72;5002897;28;45467;-85
2022/05/05 11:05:27;;;;;;;;;8.75;7.50;;;;;17.13;51.30;101710.94;4999454;28;45476;-87
2022/05/05 11:07:54;;;;;;;;;7.25;7.25;;;;;17.00;51.49;101681.34;4994198;28;45451;-85
2022/05/05 11:13:40;;;;;;;;;8.75;7.50;;;;;17.14;51.72;101720.72;4949488;28;46312;-85
2022/05/05 11:22:20;;;;;;;;;8.00;8.00;;;;;17.18;50.99;101721.41;4933833;28;45566;-84
2022/05/05 11:24:50;;;;;;;;;4.00;4.00;;;;;17.18;51.63;101703.41;4933567;28;46482;-84
2022/05/05 11:27:18;;;;;;;;;9.00;6.25;;;;;17.31;51.41;101713.34;4934234;28;45562;-84
2022/05/05 11:29:57;;;;;;;;;8.25;6.00;;;;;17.20;51.03;101693.41;4934336;28;45513;-85
2022/05/05 11:32:29;;;;;;;;;9.25;9.25;;;;;17.25;51.44;101699.34;4919358;28;45457;-85
2022/05/05 11:34:54;;;;;;;;;5.00;4.00;;;;;17.41;51.08;101709.91;4934034;28;45456;-85
2022/05/05 11:37:20;;;;;;;;;4.50;4.50;;;;;17.41;51.16;101704.53;4934480;28;45455;-85
2022/05/05 11:39:48;;;;;;;;;7.50;7.50;;;;;17.36;51.22;101714.72;4922372;28;45486;-86
2022/05/05 11:42:14;;;;;;;;;8.00;5.00;;;;;17.41;50.86;101712.63;4933779;28;57817;-86
2022/05/05 11:44:43;;;;;;;;;7.50;7.50;;;;;17.44;50.87;101711.53;4934316;28;45679;-86
2022/05/05 11:47:19;;;;;;;;;6.00;6.00;;;;;17.38;51.04;101711.94;4934135;28;45661;-85